Time;durP1;ratioP1;P1;durP2;ratioP2;P2;SDS_P1;SDS_P2;PMS_P1;PMS_P2;Temp;Humidity;BMP_temperature;BMP_pressure;BME280_temperature;BME280_humidity;BME280_pressure;Samples;Min_cycle;Max_cycle;Signal;HPM_P1;HPM_P2
2022/07/09 00:00:18;;;;;;;7.50;3.90;;;;;;;13.63;100.00;102608.59;2071567;28;32846;-71
2022/07/09 00:01:20;;;;;;;8.68;3.22;;;;;;;13.62;100.00;102599.66;2071908;28;28454;-71
2022/07/09 00:02:22;;;;;;;8.85;4.07;;;;;;;13.66;100.00;102606.78;2072089;28;24234;-71
2022/07/09 00:03:29;;;;;;;6.63;3.85;;;;;;;13.66;100.00;102601.41;2071561;28;24723;-72
2022/07/09 00:04:31;;;;;;;12.32;4.45;;;;;;;13.68;100.00;102601.38;2070973;28;20046;-73
2022/07/09 00:05:35;;;;;;;11.38;4.38;;;;;;;13.68;100.00;102613.03;2071874;28;26878;-70
2022/07/09 00:06:37;;;;;;;8.80;3.78;;;;;;;13.68;100.00;102607.66;2072092;28;21673;-71
2022/07/09 00:07:41;;;;;;;11.82;3.97;;;;;;;13.68;100.00;102601.38;2071710;28;30692;-70
2022/07/09 00:08:43;;;;;;;9.25;3.45;;;;;;;13.67;100.00;102600.47;2071833;28;21787;-71
2022/07/09 00:09:44;;;;;;;8.35;3.53;;;;;;;13.67;99.98;102603.16;2071870;28;23425;-70
2022/07/09 00:10:46;;;;;;;9.32;3.53;;;;;;;13.67;100.00;102594.22;2072165;28;21129;-72
2022/07/09 00:11:48;;;;;;;13.50;3.65;;;;;;;13.67;100.00;102610.34;2071803;28;32045;-72
2022/07/09 00:12:52;;;;;;;6.80;3.83;;;;;;;13.66;100.00;102598.72;2071215;28;20910;-72
2022/07/09 00:13:53;;;;;;;6.97;3.15;;;;;;;13.63;100.00;102604.09;2071434;28;32141;-72
2022/07/09 00:14:55;;;;;;;9.18;4.25;;;;;;;13.62;100.00;102593.34;2072030;28;20840;-72
2022/07/09 00:15:57;;;;;;;7.47;4.07;;;;;;;13.62;100.00;102602.34;2071121;28;31599;-72
2022/07/09 00:16:59;;;;;;;7.25;3.67;;;;;;;13.62;100.00;102594.28;2070822;28;34928;-71
2022/07/09 00:18:01;;;;;;;10.98;4.13;;;;;;;13.62;100.00;102594.28;2071781;28;20143;-71
2022/07/09 00:19:03;;;;;;;12.98;4.25;;;;;;;13.60;100.00;102597.84;2070701;28;28065;-71
2022/07/09 00:20:06;;;;;;;8.25;3.70;;;;;;;13.59;100.00;102599.66;2071090;28;28324;-71
2022/07/09 00:21:07;;;;;;;8.75;4.15;;;;;;;13.58;100.00;102600.56;2071293;28;23867;-71
2022/07/09 00:22:09;;;;;;;10.68;4.07;;;;;;;13.61;100.00;102595.16;2072011;28;20748;-71
2022/07/09 00:23:12;;;;;;;7.30;3.97;;;;;;;13.59;100.00;102599.66;2072170;28;20070;-71
2022/07/09 00:24:14;;;;;;;10.85;4.15;;;;;;;13.59;100.00;102596.97;2071417;28;34993;-71
2022/07/09 00:25:16;;;;;;;5.43;3.35;;;;;;;13.55;100.00;102603.31;2070930;28;37948;-71
2022/07/09 00:26:18;;;;;;;8.60;3.90;;;;;;;13.52;100.00;102596.13;2071988;28;21066;-70
2022/07/09 00:27:22;;;;;;;10.32;4.35;;;;;;;13.50;100.00;102599.75;2071915;28;21583;-71
2022/07/09 00:28:24;;;;;;;9.52;4.28;;;;;;;13.48;100.00;102594.38;2071073;28;29449;-71
2022/07/09 00:29:26;;;;;;;6.47;4.05;;;;;;;13.46;100.00;102592.59;2070583;28;26266;-71
2022/07/09 00:30:30;;;;;;;12.93;4.82;;;;;;;13.47;100.00;102597.06;2071239;28;20034;-71
2022/07/09 00:31:32;;;;;;;11.70;3.83;;;;;;;13.41;100.00;102599.84;2071790;28;21900;-71
2022/07/09 00:32:34;;;;;;;7.72;3.97;;;;;;;13.38;100.00;102597.16;2071673;28;22176;-71
2022/07/09 00:33:36;;;;;;;10.73;4.47;;;;;;;13.35;100.00;102590.91;2071180;28;33131;-71
2022/07/09 00:34:38;;;;;;;11.32;5.10;;;;;;;13.35;100.00;102598.06;2071310;28;22250;-71
2022/07/09 00:35:39;;;;;;;10.07;3.80;;;;;;;13.30;100.00;102589.13;2071273;28;20809;-71
2022/07/09 00:36:41;;;;;;;6.63;3.88;;;;;;;13.27;100.00;102589.13;2070380;28;37390;-71
2022/07/09 00:37:43;;;;;;;9.15;4.55;;;;;;;13.24;100.00;102583.78;2070157;28;36141;-71
2022/07/09 00:38:45;;;;;;;9.25;3.65;;;;;;;13.20;100.00;102585.59;2071167;28;24942;-71
2022/07/09 00:39:47;;;;;;;9.07;3.95;;;;;;;13.17;100.00;102586.53;2070763;28;22195;-71
2022/07/09 00:40:50;;;;;;;9.15;4.50;;;;;;;13.17;100.00;102586.53;2072237;28;20050;-71
2022/07/09 00:42:06;;;;;;;11.00;4.80;;;;;;;13.16;100.00;102586.53;2071050;28;25805;-71
2022/07/09 00:43:19;;;;;;;11.38;5.10;;;;;;;13.11;100.00;102583.84;2071686;28;29113;-71
2022/07/09 00:44:21;;;;;;;11.90;4.63;;;;;;;13.06;100.00;102584.81;2071793;28;20939;-71
2022/07/09 00:45:23;;;;;;;11.43;4.68;;;;;;;13.05;100.00;102578.53;2071355;28;23873;-71
2022/07/09 00:46:27;;;;;;;11.65;4.90;;;;;;;13.03;100.00;102587.50;2071618;28;27554;-71
2022/07/09 00:47:31;;;;;;;10.75;6.15;;;;;;;13.01;100.00;102579.47;2071500;28;29621;-71
2022/07/09 00:48:33;;;;;;;13.23;5.53;;;;;;;12.97;100.00;102578.59;2071919;28;20910;-71
2022/07/09 00:49:41;;;;;;;15.20;5.13;;;;;;;12.95;100.00;102580.38;2071386;28;29698;-71
2022/07/09 00:50:46;;;;;;;12.40;5.00;;;;;;;12.94;100.00;102586.69;2072183;28;25597;-71
2022/07/09 00:51:48;;;;;;;7.40;4.32;;;;;;;12.92;100.00;102583.09;2071798;28;22071;-71
2022/07/09 00:52:51;;;;;;;9.25;5.15;;;;;;;12.93;100.00;102584.00;2070785;28;31538;-71
2022/07/09 00:53:53;;;;;;;7.47;5.10;;;;;;;12.90;100.00;102584.91;2071242;28;20896;-71
2022/07/09 00:55:00;;;;;;;11.88;4.72;;;;;;;12.88;100.00;102581.31;2070503;28;38603;-71
2022/07/09 00:56:04;;;;;;;11.98;5.68;;;;;;;12.88;100.00;102581.31;2071281;28;20900;-71
2022/07/09 00:57:08;;;;;;;13.88;6.03;;;;;;;12.95;100.00;102579.50;2070676;28;28273;-71
2022/07/09 00:58:12;;;;;;;11.52;6.43;;;;;;;12.90;100.00;102578.63;2070412;28;26677;-71
2022/07/09 00:59:14;;;;;;;15.05;5.90;;;;;;;12.87;100.00;102579.56;2071213;28;20050;-71
2022/07/09 01:00:18;;;;;;;11.65;6.07;;;;;;;12.88;100.00;102575.94;2071704;28;28192;-71
2022/07/09 01:01:20;;;;;;;11.80;5.93;;;;;;;12.85;100.00;102581.38;2079417;28;25678;-71
2022/07/09 01:02:23;;;;;;;9.00;5.43;;;;;;;12.83;100.00;102575.09;2073169;28;20843;-71
2022/07/09 01:03:24;;;;;;;7.53;5.00;;;;;;;12.81;100.00;102574.19;2073117;28;21831;-71
2022/07/09 01:04:29;;;;;;;11.57;5.38;;;;;;;12.79;100.00;102576.00;2072587;28;32759;-71
2022/07/09 01:05:35;;;;;;;14.40;6.88;;;;;;;12.80;100.00;102577.81;2072563;28;20109;-71
2022/07/09 01:06:39;;;;;;;10.88;5.80;;;;;;;12.81;100.00;102568.81;2072611;28;26913;-71
2022/07/09 01:07:42;;;;;;;12.93;6.70;;;;;;;12.75;100.00;102568.88;2073098;28;20493;-71
2022/07/09 01:08:46;;;;;;;13.40;6.10;;;;;;;12.76;100.00;102555.44;2073452;28;20985;-71
2022/07/09 01:09:50;;;;;;;9.90;5.82;;;;;;;12.75;100.00;102563.50;2072550;28;29893;-71
2022/07/09 01:10:53;;;;;;;11.68;5.95;;;;;;;12.71;100.00;102559.06;2072481;28;21036;-71
2022/07/09 01:11:57;;;;;;;14.60;6.63;;;;;;;12.73;100.00;102565.31;2072280;28;23207;-71
2022/07/09 01:12:59;;;;;;;13.90;6.68;;;;;;;12.71;100.00;102554.56;2072055;28;29640;-71
2022/07/09 01:14:01;;;;;;;13.95;5.85;;;;;;;12.73;100.00;102557.25;2064300;28;26431;-71
2022/07/09 01:15:04;;;;;;;13.45;7.28;;;;;;;12.73;100.00;102559.94;2064549;28;25033;-71
2022/07/09 01:16:15;;;;;;;11.73;5.70;;;;;;;12.70;100.00;102555.44;2065419;28;20784;-71
2022/07/09 01:17:17;;;;;;;13.98;6.35;;;;;;;12.69;100.00;102560.84;2064170;28;28705;-71
2022/07/09 01:18:19;;;;;;;13.15;6.93;;;;;;;12.71;100.00;102556.34;2064369;28;39093;-71
2022/07/09 01:19:21;;;;;;;11.27;7.38;;;;;;;12.67;100.00;102552.78;2064424;28;22027;-71
2022/07/09 01:20:30;;;;;;;11.95;6.65;;;;;;;12.65;100.00;102551.91;2065318;28;20031;-71
2022/07/09 01:21:32;;;;;;;10.45;5.93;;;;;;;12.62;100.00;102551.03;2064691;28;30138;-71
2022/07/09 01:22:36;;;;;;;12.38;6.20;;;;;;;12.63;100.00;102558.19;2065181;28;20039;-71
2022/07/09 01:23:38;;;;;;;13.65;5.55;;;;;;;12.60;100.00;102557.31;2069918;28;20820;-71
2022/07/09 01:24:40;;;;;;;13.15;6.43;;;;;;;12.57;100.00;102557.31;2072922;28;31004;-71
2022/07/09 01:25:45;;;;;;;13.43;6.20;;;;;;;12.56;100.00;102549.25;2072321;28;31109;-71
2022/07/09 01:26:48;;;;;;;8.30;4.75;;;;;;;12.54;100.00;102551.97;2073002;28;28105;-71
2022/07/09 01:27:49;;;;;;;12.05;5.78;;;;;;;12.50;100.00;102552.00;2072782;28;32729;-71
2022/07/09 01:28:51;;;;;;;8.10;4.90;;;;;;;12.47;100.00;102552.00;2072894;28;24660;-71
2022/07/09 01:29:53;;;;;;;10.93;5.32;;;;;;;12.45;100.00;102548.44;2072821;28;25723;-71
2022/07/09 01:30:55;;;;;;;12.02;6.10;;;;;;;12.42;100.00;102554.72;2072710;28;33507;-71
2022/07/09 01:31:57;;;;;;;12.30;6.88;;;;;;;12.40;100.00;102553.84;2072664;28;22205;-71
2022/07/09 01:33:00;;;;;;;9.68;5.80;;;;;;;12.39;100.00;102554.72;2063892;28;31549;-71
2022/07/09 01:34:03;;;;;;;10.25;5.20;;;;;;;12.38;100.00;102553.84;2064775;28;20400;-71
2022/07/09 01:35:06;;;;;;;7.90;5.47;;;;;;;12.37;100.00;102554.72;2073072;28;20962;-71
2022/07/09 01:36:08;;;;;;;8.77;5.57;;;;;;;12.36;100.00;102546.66;2072662;28;28457;-71
2022/07/09 01:37:10;;;;;;;10.68;5.10;;;;;;;12.36;100.00;102552.03;2073695;28;20933;-71
2022/07/09 01:38:11;;;;;;;12.40;6.68;;;;;;;12.36;100.00;102546.66;2072391;28;23600;-71
2022/07/09 01:39:13;;;;;;;13.35;6.47;;;;;;;12.37;100.00;102545.78;2072080;28;20930;-70
2022/07/09 01:40:16;;;;;;;11.15;6.00;;;;;;;12.38;100.00;102550.25;2072567;28;28724;-71
2022/07/09 01:41:17;;;;;;;11.95;6.60;;;;;;;12.36;100.00;102547.59;2073109;28;20941;-71
2022/07/09 01:42:19;;;;;;;9.43;6.15;;;;;;;12.38;100.00;102547.56;2072343;28;36290;-71
2022/07/09 01:43:21;;;;;;;19.20;8.43;;;;;;;12.39;100.00;102544.88;2072920;28;23690;-71
2022/07/09 01:44:23;;;;;;;11.60;6.78;;;;;;;12.41;100.00;102542.19;2073171;28;20050;-71
2022/07/09 01:45:27;;;;;;;16.73;7.82;;;;;;;12.42;100.00;102541.28;2072881;28;21352;-71
2022/07/09 01:46:30;;;;;;;15.07;7.13;;;;;;;12.41;100.00;102543.06;2073312;28;20760;-71
2022/07/09 01:47:32;;;;;;;9.23;6.25;;;;;;;12.42;100.00;102543.97;2072926;28;23236;-71
2022/07/09 01:48:35;;;;;;;10.02;5.97;;;;;;;12.44;100.00;102530.53;2072704;28;28906;-71
2022/07/09 01:49:38;;;;;;;9.00;6.22;;;;;;;12.44;100.00;102534.13;2071995;28;20566;-71
2022/07/09 01:50:40;;;;;;;12.88;6.40;;;;;;;12.45;100.00;102525.13;2072640;28;21887;-71
2022/07/09 01:51:42;;;;;;;11.35;6.97;;;;;;;12.46;100.00;102516.19;2071805;28;37115;-70
2022/07/09 01:52:44;;;;;;;13.32;7.18;;;;;;;12.47;100.00;102520.66;2072003;28;23514;-71
2022/07/09 01:53:48;;;;;;;13.63;7.28;;;;;;;12.49;100.00;102512.56;2071940;28;23621;-71
2022/07/09 01:54:52;;;;;;;13.23;6.93;;;;;;;12.48;100.00;102517.06;2072468;28;26455;-70
2022/07/09 01:55:54;;;;;;;15.50;6.90;;;;;;;12.48;100.00;102517.06;2072863;28;20463;-71
2022/07/09 01:56:55;;;;;;;12.88;7.10;;;;;;;12.49;100.00;102529.63;2072319;28;32101;-71
2022/07/09 01:57:57;;;;;;;14.20;7.93;;;;;;;12.55;100.00;102523.31;2073217;28;26048;-71
2022/07/09 01:58:59;;;;;;;11.20;7.15;;;;;;;12.55;100.00;102521.50;2072792;28;21558;-71
2022/07/09 02:00:06;;;;;;;13.98;8.68;;;;;;;12.56;100.00;102520.63;2072251;28;20046;-71
2022/07/09 02:01:13;;;;;;;13.90;7.47;;;;;;;12.59;100.00;102522.38;2072292;28;20097;-70
2022/07/09 02:02:15;;;;;;;15.32;8.30;;;;;;;12.61;100.00;102520.56;2072081;28;36594;-71
2022/07/09 02:03:17;;;;;;;12.15;7.78;;;;;;;12.62;100.00;102518.81;2072402;28;26004;-70
2022/07/09 02:04:18;;;;;;;16.05;8.70;;;;;;;12.67;100.00;102516.94;2072765;28;21652;-71
2022/07/09 02:05:23;;;;;;;16.75;9.60;;;;;;;12.70;100.00;102517.81;2072407;28;28008;-71
2022/07/09 02:06:25;;;;;;;19.50;9.80;;;;;;;12.76;100.00;102517.81;2071459;28;25683;-71
2022/07/09 02:07:26;;;;;;;15.18;9.95;;;;;;;12.75;100.00;102516.00;2072185;28;27456;-71
2022/07/09 02:08:28;;;;;;;17.88;9.98;;;;;;;12.75;100.00;102510.63;2072917;28;23116;-71
2022/07/09 02:09:30;;;;;;;16.20;9.77;;;;;;;12.80;100.00;102513.28;2072007;28;38911;-71
2022/07/09 02:10:32;;;;;;;19.55;11.00;;;;;;;12.85;100.00;102510.56;2072420;28;27154;-71
2022/07/09 02:11:34;;;;;;;20.52;11.25;;;;;;;12.89;100.00;102518.59;2071966;28;21224;-71
2022/07/09 02:12:36;;;;;;;16.50;10.07;;;;;;;12.88;100.00;102511.44;2072069;28;21779;-71
2022/07/09 02:13:38;;;;;;;18.50;9.90;;;;;;;12.88;100.00;102508.75;2072770;28;20047;-71
2022/07/09 02:14:39;;;;;;;16.67;11.07;;;;;;;12.90;100.00;102504.28;2072518;28;25114;-71
2022/07/09 02:15:48;;;;;;;17.75;10.50;;;;;;;12.93;100.00;102506.03;2072831;28;20034;-71
2022/07/09 02:16:50;;;;;;;16.83;11.38;;;;;;;12.97;100.00;102500.63;2072256;28;36039;-70
2022/07/09 02:17:51;;;;;;;20.25;12.27;;;;;;;13.01;100.00;102496.13;2071744;28;27471;-71
2022/07/09 02:18:54;;;;;;;21.48;12.23;;;;;;;13.03;100.00;102502.38;2072168;28;28178;-70
2022/07/09 02:19:56;;;;;;;22.10;13.48;;;;;;;13.10;100.00;102495.13;2071141;28;20042;-70
2022/07/09 02:20:58;;;;;;;20.55;13.35;;;;;;;13.08;100.00;102502.31;2072309;28;29201;-70
2022/07/09 02:21:59;;;;;;;18.30;11.55;;;;;;;13.10;100.00;102496.03;2064191;28;20967;-71
2022/07/09 02:23:03;;;;;;;20.75;12.95;;;;;;;13.11;100.00;102488.84;2064242;28;25568;-71
2022/07/09 02:24:06;;;;;;;19.45;11.98;;;;;;;13.12;100.00;102487.97;2063835;28;39646;-70
2022/07/09 02:25:09;;;;;;;19.20;12.43;;;;;;;13.15;100.00;102488.81;2064559;28;20177;-71
2022/07/09 02:26:11;;;;;;;20.48;12.50;;;;;;;13.16;100.00;102487.03;2064310;28;24781;-71
2022/07/09 02:27:13;;;;;;;22.40;12.63;;;;;;;13.20;100.00;102487.88;2063973;28;26061;-71
2022/07/09 02:28:14;;;;;;;18.45;12.27;;;;;;;13.22;100.00;102486.94;2067707;28;20656;-71
2022/07/09 02:29:21;;;;;;;19.98;11.13;;;;;;;13.25;100.00;102494.13;2072874;28;20090;-71
2022/07/09 02:30:22;;;;;;;20.55;11.48;;;;;;;13.23;100.00;102491.44;2072427;28;20157;-71
2022/07/09 02:31:26;;;;;;;15.63;11.40;;;;;;;13.23;100.00;102485.19;2072169;28;38054;-71
2022/07/09 02:32:27;;;;;;;16.77;11.02;;;;;;;13.24;100.00;102489.63;2072417;28;21432;-70
2022/07/09 02:33:31;;;;;;;18.80;13.40;;;;;;;13.27;100.00;102486.91;2072271;28;36571;-71
2022/07/09 02:34:38;;;;;;;22.77;12.57;;;;;;;13.27;100.00;102471.66;2072748;28;20126;-70
2022/07/09 02:35:40;;;;;;;18.23;12.18;;;;;;;13.27;100.00;102466.28;2071846;28;40723;-71
2022/07/09 02:36:44;;;;;;;19.63;13.60;;;;;;;13.32;100.00;102469.88;2072162;28;36569;-71
2022/07/09 02:37:46;;;;;;;16.65;11.95;;;;;;;13.29;100.00;102475.22;2072338;28;26176;-71
2022/07/09 02:38:48;;;;;;;20.30;12.38;;;;;;;13.30;100.00;102479.72;2072101;28;23734;-71
2022/07/09 02:39:52;;;;;;;23.15;13.18;;;;;;;13.33;100.00;102477.03;2072463;28;20039;-71
2022/07/09 02:40:53;;;;;;;17.23;12.50;;;;;;;13.36;100.00;102474.28;2071247;28;26882;-71
2022/07/09 02:41:55;;;;;;;23.27;13.95;;;;;;;13.37;100.00;102475.22;2072463;28;20852;-71
2022/07/09 02:42:57;;;;;;;22.52;12.98;;;;;;;13.37;100.00;102472.53;2073345;28;20085;-71
2022/07/09 02:43:59;;;;;;;16.02;13.40;;;;;;;13.38;100.00;102473.41;2072358;28;29565;-71
2022/07/09 02:45:07;;;;;;;19.10;12.73;;;;;;;13.38;100.00;102476.97;2072527;28;20192;-71
2022/07/09 02:46:13;;;;;;;18.75;12.77;;;;;;;13.40;100.00;102466.19;2071942;28;27226;-72
2022/07/09 02:47:15;;;;;;;18.15;13.30;;;;;;;13.41;100.00;102470.69;2072132;28;24993;-71
2022/07/09 02:48:19;;;;;;;23.25;14.60;;;;;;;13.40;100.00;102475.16;2072405;28;20038;-71
2022/07/09 02:49:23;;;;;;;18.35;12.40;;;;;;;13.43;100.00;102476.94;2072360;28;25851;-71
2022/07/09 02:50:25;;;;;;;15.77;12.48;;;;;;;13.42;100.00;102473.34;2072159;28;30088;-71
2022/07/09 02:51:27;;;;;;;14.93;11.90;;;;;;;13.43;100.00;102477.81;2072258;28;20861;-71
2022/07/09 02:52:28;;;;;;;21.80;13.80;;;;;;;13.46;100.00;102461.66;2071367;28;39111;-71
2022/07/09 02:53:31;;;;;;;24.35;15.13;;;;;;;13.47;100.00;102462.53;2072059;28;20050;-72
2022/07/09 02:54:33;;;;;;;23.73;14.05;;;;;;;13.47;100.00;102473.31;2071850;28;20858;-71
2022/07/09 02:55:35;;;;;;;23.65;14.70;;;;;;;13.48;100.00;102467.03;2071284;28;29442;-71
2022/07/09 02:56:37;;;;;;;23.60;14.52;;;;;;;13.50;100.00;102467.91;2072552;28;20051;-71
2022/07/09 02:57:42;;;;;;;27.90;14.93;;;;;;;13.50;100.00;102467.91;2071131;28;29526;-71
2022/07/09 02:58:45;;;;;;;19.80;13.75;;;;;;;13.48;100.00;102472.41;2071575;28;20407;-70
2022/07/09 02:59:47;;;;;;;22.60;15.32;;;;;;;13.49;100.00;102460.72;2071704;28;21192;-71
2022/07/09 03:00:52;;;;;;;21.38;13.40;;;;;;;13.49;100.00;102460.72;2071982;28;34387;-71
2022/07/09 03:01:53;;;;;;;20.80;12.68;;;;;;;13.49;100.00;102466.09;2072649;28;20226;-71
2022/07/09 03:02:55;;;;;;;20.92;13.98;;;;;;;13.50;100.00;102466.09;2072699;28;20027;-71
2022/07/09 03:03:57;;;;;;;28.38;16.00;;;;;;;13.50;100.00;102462.53;2072086;28;24431;-71
2022/07/09 03:04:59;;;;;;;19.42;13.73;;;;;;;13.51;100.00;102462.50;2072882;28;20177;-71
2022/07/09 03:06:02;;;;;;;20.67;14.93;;;;;;;13.52;100.00;102466.09;2071635;28;34708;-71
2022/07/09 03:07:04;;;;;;;28.23;16.25;;;;;;;13.53;100.00;102463.38;2071464;28;22218;-71
2022/07/09 03:08:08;;;;;;;21.83;15.98;;;;;;;13.54;100.00;102472.34;2071383;28;22121;-71
2022/07/09 03:09:10;;;;;;;19.80;14.52;;;;;;;13.53;100.00;102468.75;2071999;28;33571;-71
2022/07/09 03:10:12;;;;;;;22.63;15.80;;;;;;;13.56;100.00;102473.19;2071695;28;20300;-71
2022/07/09 03:11:14;;;;;;;19.70;13.10;;;;;;;13.55;100.00;102468.75;2071932;28;20486;-71
2022/07/09 03:12:18;;;;;;;19.13;13.52;;;;;;;13.56;100.00;102470.50;2072177;28;20839;-71
2022/07/09 03:13:20;;;;;;;19.02;13.30;;;;;;;13.58;100.00;102467.81;2070460;28;35129;-71
2022/07/09 03:14:21;;;;;;;16.73;12.70;;;;;;;13.60;100.00;102468.69;2071485;28;27461;-69
2022/07/09 03:15:23;;;;;;;22.45;14.45;;;;;;;13.60;100.00;102463.28;2063157;28;32635;-69
2022/07/09 03:16:25;;;;;;;19.33;13.05;;;;;;;13.61;100.00;102465.97;2090651;22;20389;-69
2022/07/09 03:17:27;;;;;;;21.52;13.55;;;;;;;13.61;100.00;102465.97;2073160;28;36473;-69
2022/07/09 03:18:29;;;;;;;23.88;13.57;;;;;;;13.62;100.00;102466.84;2071449;28;30999;-69
2022/07/09 03:19:31;;;;;;;25.67;14.68;;;;;;;13.66;100.00;102464.13;2072099;28;20050;-68
2022/07/09 03:20:33;;;;;;;19.80;14.18;;;;;;;13.65;100.00;102459.63;2071545;28;40706;-68
2022/07/09 03:21:37;;;;;;;27.13;15.40;;;;;;;13.65;100.00;102459.63;2070878;28;28028;-68
2022/07/09 03:22:39;;;;;;;25.40;14.10;;;;;;;13.65;100.00;102459.63;2071352;28;31432;-69
2022/07/09 03:23:41;;;;;;;22.65;13.68;;;;;;;13.66;100.00;102458.75;2072104;28;20902;-67
2022/07/09 03:24:43;;;;;;;17.25;12.40;;;;;;;13.68;100.00;102458.72;2071977;28;24704;-68
2022/07/09 03:25:49;;;;;;;19.35;12.55;;;;;;;13.70;100.00;102462.28;2072072;28;20129;-68
2022/07/09 03:26:51;;;;;;;20.05;14.57;;;;;;;13.69;100.00;102457.81;2071440;28;20035;-69
2022/07/09 03:27:54;;;;;;;22.30;14.88;;;;;;;13.71;100.00;102456.91;2071740;28;23284;-68
2022/07/09 03:28:58;;;;;;;23.75;16.52;;;;;;;13.72;100.00;102458.66;2072510;28;20030;-68
2022/07/09 03:30:00;;;;;;;24.02;14.68;;;;;;;13.72;100.00;102455.09;2072241;28;23024;-68
2022/07/09 03:31:02;;;;;;;21.85;13.90;;;;;;;13.74;100.00;102461.34;2072101;28;21549;-68
2022/07/09 03:32:04;;;;;;;23.30;15.70;;;;;;;13.77;100.00;102455.03;2072195;28;21808;-68
2022/07/09 03:33:08;;;;;;;22.90;14.57;;;;;;;13.78;100.00;102454.13;2069992;28;34597;-67
2022/07/09 03:34:10;;;;;;;22.65;14.43;;;;;;;13.77;100.00;102449.66;2071306;28;28496;-68
2022/07/09 03:35:12;;;;;;;24.83;15.73;;;;;;;13.79;100.00;102447.84;2070721;28;38896;-69
2022/07/09 03:36:15;;;;;;;17.80;14.13;;;;;;;13.80;100.00;102444.22;2071835;28;20688;-68
2022/07/09 03:37:16;;;;;;;22.83;13.98;;;;;;;13.82;100.00;102442.38;2071236;28;39896;-69
2022/07/09 03:38:18;;;;;;;21.15;14.00;;;;;;;13.83;100.00;102436.09;2071532;28;36886;-68
2022/07/09 03:39:21;;;;;;;27.55;16.27;;;;;;;13.85;100.00;102442.38;2072042;28;23635;-68
2022/07/09 03:40:26;;;;;;;19.60;13.75;;;;;;;13.86;100.00;102436.09;2070835;28;20042;-68
2022/07/09 03:41:28;;;;;;;19.98;14.68;;;;;;;13.86;100.00;102436.09;2070306;28;28070;-68
2022/07/09 03:42:29;;;;;;;22.33;14.90;;;;;;;13.88;100.00;102437.84;2064010;28;20152;-68
2022/07/09 03:43:31;;;;;;;21.10;13.80;;;;;;;13.87;100.00;102436.06;2063054;28;33169;-68
2022/07/09 03:44:33;;;;;;;26.08;15.90;;;;;;;13.87;100.00;102438.75;2063343;28;22866;-68
2022/07/09 03:45:35;;;;;;;26.40;16.15;;;;;;;13.89;100.00;102449.47;2064274;28;20043;-69
2022/07/09 03:46:39;;;;;;;22.83;14.43;;;;;;;13.89;100.00;102444.09;2063686;28;27584;-70
2022/07/09 03:47:41;;;;;;;22.55;13.95;;;;;;;13.89;100.00;102438.72;2066508;28;31434;-68
2022/07/09 03:48:42;;;;;;;18.75;13.35;;;;;;;13.89;100.00;102430.63;2063385;28;20046;-69
2022/07/09 03:49:44;;;;;;;17.77;13.55;;;;;;;13.90;100.00;102440.50;2055444;28;28931;-68
2022/07/09 03:50:46;;;;;;;25.73;15.68;;;;;;;13.90;100.00;102437.81;2062797;28;34517;-67
2022/07/09 03:51:48;;;;;;;21.95;15.55;;;;;;;13.91;100.00;102442.31;2063022;28;21714;-70
2022/07/09 03:53:09;;;;;;;20.23;14.77;;;;;;;13.92;100.00;102438.69;2067500;28;20042;-68
2022/07/09 03:54:11;;;;;;;19.27;13.95;;;;;;;13.93;100.00;102441.34;2071660;28;20030;-68
2022/07/09 03:55:13;;;;;;;21.90;14.32;;;;;;;13.96;100.00;102437.72;2070684;28;31301;-70
2022/07/09 03:56:15;;;;;;;21.35;14.57;;;;;;;13.97;100.00;102436.81;2071902;28;24206;-68
2022/07/09 03:57:17;;;;;;;21.65;14.25;;;;;;;13.98;100.00;102445.78;2072313;28;20086;-68
2022/07/09 03:58:18;;;;;;;21.58;14.93;;;;;;;14.00;100.00;102447.56;2071174;28;29738;-70
2022/07/09 03:59:20;;;;;;;22.70;14.10;;;;;;;14.00;100.00;102449.34;2071112;28;25506;-69
2022/07/09 04:00:22;;;;;;;18.48;14.10;;;;;;;14.00;100.00;102454.72;2072165;28;20042;-68
2022/07/09 04:01:24;;;;;;;18.30;13.60;;;;;;;14.01;100.00;102452.03;2071162;28;21988;-69
2022/07/09 04:02:27;;;;;;;21.83;14.48;;;;;;;14.02;100.00;102451.13;2072223;28;20849;-69
2022/07/09 04:03:29;;;;;;;19.98;14.50;;;;;;;14.03;100.00;102452.00;2071839;28;21929;-68
2022/07/09 04:04:31;;;;;;;22.35;14.38;;;;;;;14.02;100.00;102456.50;2071937;28;24963;-69
2022/07/09 04:05:32;;;;;;;22.98;14.00;;;;;;;14.04;100.00;102453.81;2071224;28;20120;-68
2022/07/09 04:06:34;;;;;;;19.98;13.95;;;;;;;14.03;100.00;102458.31;2071328;28;21645;-69
2022/07/09 04:07:40;;;;;;;23.45;14.48;;;;;;;14.02;100.00;102453.81;2070032;28;31859;-67
2022/07/09 04:08:42;;;;;;;18.35;12.93;;;;;;;14.04;100.00;102454.69;2070712;28;20030;-69
2022/07/09 04:09:43;;;;;;;20.52;14.35;;;;;;;14.05;100.00;102453.78;2062726;28;41736;-69
2022/07/09 04:10:47;;;;;;;13.88;12.27;;;;;;;14.06;100.00;102452.84;2063870;28;25300;-69
2022/07/09 04:11:51;;;;;;;17.88;12.40;;;;;;;14.09;100.00;102449.25;2064199;28;20039;-69
2022/07/09 04:12:55;;;;;;;16.77;12.00;;;;;;;14.10;100.00;102454.63;2063396;28;26541;-69
2022/07/09 04:13:56;;;;;;;18.10;12.55;;;;;;;14.12;100.00;102442.03;2063508;28;26063;-68
2022/07/09 04:15:00;;;;;;;22.27;13.00;;;;;;;14.15;100.00;102440.19;2070989;28;20830;-70
2022/07/09 04:16:04;;;;;;;19.35;14.55;;;;;;;14.16;100.00;102448.25;2072116;28;20023;-66
2022/07/09 04:17:09;;;;;;;20.38;14.85;;;;;;;14.18;100.00;102440.16;2072356;28;21134;-69
2022/07/09 04:18:11;;;;;;;23.83;13.85;;;;;;;14.19;100.00;102442.81;2071436;28;30774;-68
2022/07/09 04:19:13;;;;;;;23.17;14.65;;;;;;;14.21;100.00;102449.09;2071787;28;21259;-70
2022/07/09 04:20:14;;;;;;;21.77;13.52;;;;;;;14.22;100.00;102445.47;2071134;28;21088;-69
2022/07/09 04:21:21;;;;;;;23.00;13.30;;;;;;;14.23;100.00;102443.66;2071086;28;33827;-70
2022/07/09 04:22:23;;;;;;;17.77;12.45;;;;;;;14.25;100.00;102437.34;2071009;28;36660;-69
2022/07/09 04:23:31;;;;;;;17.35;11.35;;;;;;;14.27;100.00;102443.59;2071236;28;24738;-68
2022/07/09 04:24:33;;;;;;;17.10;12.45;;;;;;;14.28;100.00;102440.00;2071496;28;20045;-69
2022/07/09 04:25:35;;;;;;;18.88;12.57;;;;;;;14.32;100.00;102438.16;2071548;28;20049;-70
2022/07/09 04:26:37;;;;;;;18.35;11.95;;;;;;;14.34;100.00;102441.72;2071753;28;23239;-68
2022/07/09 04:27:39;;;;;;;20.67;12.93;;;;;;;14.34;100.00;102439.03;2071799;28;26848;-68
2022/07/09 04:28:41;;;;;;;19.00;12.23;;;;;;;14.37;100.00;102436.25;2070449;28;33863;-69
2022/07/09 04:29:44;;;;;;;23.83;12.75;;;;;;;14.37;100.00;102438.97;2071265;28;30140;-67
2022/07/09 04:30:46;;;;;;;18.67;12.80;;;;;;;14.39;100.00;102445.25;2071703;28;21530;-70
2022/07/09 04:31:48;;;;;;;21.70;12.55;;;;;;;14.39;100.00;102437.16;2070930;28;32433;-68
2022/07/09 04:32:50;;;;;;;16.42;11.63;;;;;;;14.43;100.00;102446.09;2066938;28;36483;-70
2022/07/09 04:33:52;;;;;;;16.83;12.48;;;;;;;14.44;100.00;102435.25;2070892;28;36861;-69
2022/07/09 04:34:53;;;;;;;18.95;12.20;;;;;;;14.46;100.00;102430.75;2070877;28;25295;-68
2022/07/09 04:35:55;;;;;;;18.67;12.57;;;;;;;14.49;100.00;102438.78;2072596;28;21560;-70
2022/07/09 04:36:57;;;;;;;19.63;11.95;;;;;;;14.52;100.00;102430.66;2062383;28;27348;-70
2022/07/09 04:37:59;;;;;;;19.17;11.10;;;;;;;14.57;100.00;102429.69;2062545;28;29873;-69
2022/07/09 04:39:00;;;;;;;15.52;11.13;;;;;;;14.62;100.00;102430.53;2071393;28;25856;-68
2022/07/09 04:40:04;;;;;;;16.58;10.55;;;;;;;14.67;100.00;102426.84;2071734;28;20039;-68
2022/07/09 04:41:06;;;;;;;22.52;11.60;;;;;;;14.70;100.00;102424.13;2071435;28;26893;-69
2022/07/09 04:42:10;;;;;;;18.75;11.48;;;;;;;14.72;100.00;102426.78;2071130;28;27461;-68
2022/07/09 04:43:14;;;;;;;15.32;11.95;;;;;;;14.77;100.00;102424.91;2071553;28;20050;-68
2022/07/09 04:44:18;;;;;;;16.25;10.38;;;;;;;14.86;100.00;102430.16;2071187;28;28723;-69